sensor_id;sensor_type;location;lat;lon;timestamp;temperature;humidity
44775;DHT22;31340;51.402;0.016;2023-09-08T00:00:57;22.30;91.10
44775;DHT22;31340;51.402;0.016;2023-09-08T00:03:25;22.30;91.20
44775;DHT22;31340;51.402;0.016;2023-09-08T00:05:52;22.30;91.20
44775;DHT22;31340;51.402;0.016;2023-09-08T00:08:20;22.30;91.30
44775;DHT22;31340;51.402;0.016;2023-09-08T00:10:49;22.20;91.30
44775;DHT22;31340;51.402;0.016;2023-09-08T00:13:16;22.20;91.40
44775;DHT22;31340;51.402;0.016;2023-09-08T00:15:44;22.20;91.40
44775;DHT22;31340;51.402;0.016;2023-09-08T00:18:11;22.10;91.50
44775;DHT22;31340;51.402;0.016;2023-09-08T00:20:39;22.10;91.50
44775;DHT22;31340;51.402;0.016;2023-09-08T00:23:09;22.10;91.50
44775;DHT22;31340;51.402;0.016;2023-09-08T00:25:36;22.10;91.60
44775;DHT22;31340;51.402;0.016;2023-09-08T00:28:04;22.10;91.60
44775;DHT22;31340;51.402;0.016;2023-09-08T00:30:32;22.00;91.60
44775;DHT22;31340;51.402;0.016;2023-09-08T00:32:59;22.00;91.70
44775;DHT22;31340;51.402;0.016;2023-09-08T00:35:27;22.00;91.80
44775;DHT22;31340;51.402;0.016;2023-09-08T00:37:55;22.00;91.80
44775;DHT22;31340;51.402;0.016;2023-09-08T00:40:22;21.90;91.90
44775;DHT22;31340;51.402;0.016;2023-09-08T00:42:50;21.90;91.90
44775;DHT22;31340;51.402;0.016;2023-09-08T00:45:17;21.90;92.00
44775;DHT22;31340;51.402;0.016;2023-09-08T00:47:45;21.90;92.00
44775;DHT22;31340;51.402;0.016;2023-09-08T00:50:13;21.80;92.00
44775;DHT22;31340;51.402;0.016;2023-09-08T00:52:40;21.80;92.10
44775;DHT22;31340;51.402;0.016;2023-09-08T00:55:08;21.80;92.20
44775;DHT22;31340;51.402;0.016;2023-09-08T00:57:36;21.80;92.20
44775;DHT22;31340;51.402;0.016;2023-09-08T01:00:04;21.70;92.20
44775;DHT22;31340;51.402;0.016;2023-09-08T01:02:33;21.70;92.60
44775;DHT22;31340;51.402;0.016;2023-09-08T01:05:00;21.70;92.30
44775;DHT22;31340;51.402;0.016;2023-09-08T01:07:30;21.70;92.30
44775;DHT22;31340;51.402;0.016;2023-09-08T01:09:58;21.70;92.40
44775;DHT22;31340;51.402;0.016;2023-09-08T01:12:31;21.70;92.40
44775;DHT22;31340;51.402;0.016;2023-09-08T01:14:59;21.70;92.50
44775;DHT22;31340;51.402;0.016;2023-09-08T01:17:26;21.60;92.40
44775;DHT22;31340;51.402;0.016;2023-09-08T01:19:55;21.60;92.50
44775;DHT22;31340;51.402;0.016;2023-09-08T01:22:45;21.60;92.50
44775;DHT22;31340;51.402;0.016;2023-09-08T01:25:24;21.60;92.60
44775;DHT22;31340;51.402;0.016;2023-09-08T01:27:54;21.60;92.70
44775;DHT22;31340;51.402;0.016;2023-09-08T01:30:25;21.60;92.70
44775;DHT22;31340;51.402;0.016;2023-09-08T01:32:54;21.50;92.70
44775;DHT22;31340;51.402;0.016;2023-09-08T01:35:23;21.50;92.80
44775;DHT22;31340;51.402;0.016;2023-09-08T01:37:51;21.50;92.80
44775;DHT22;31340;51.402;0.016;2023-09-08T01:40:19;21.50;92.90
44775;DHT22;31340;51.402;0.016;2023-09-08T01:42:47;21.40;92.90
44775;DHT22;31340;51.402;0.016;2023-09-08T01:45:15;21.50;93.00
44775;DHT22;31340;51.402;0.016;2023-09-08T01:47:42;21.40;93.00
44775;DHT22;31340;51.402;0.016;2023-09-08T01:50:10;21.40;93.10
44775;DHT22;31340;51.402;0.016;2023-09-08T01:52:37;21.40;93.10
44775;DHT22;31340;51.402;0.016;2023-09-08T01:55:05;21.40;93.10
44775;DHT22;31340;51.402;0.016;2023-09-08T01:57:35;21.40;93.20
44775;DHT22;31340;51.402;0.016;2023-09-08T02:00:02;21.40;93.20
44775;DHT22;31340;51.402;0.016;2023-09-08T02:02:39;21.40;93.30
44775;DHT22;31340;51.402;0.016;2023-09-08T02:05:07;21.40;93.40
44775;DHT22;31340;51.402;0.016;2023-09-08T02:07:35;21.30;93.40
44775;DHT22;31340;51.402;0.016;2023-09-08T02:10:03;21.30;93.50
44775;DHT22;31340;51.402;0.016;2023-09-08T02:12:31;21.30;93.60
44775;DHT22;31340;51.402;0.016;2023-09-08T02:14:58;21.30;93.60
44775;DHT22;31340;51.402;0.016;2023-09-08T02:17:29;21.30;93.70
44775;DHT22;31340;51.402;0.016;2023-09-08T02:19:57;21.30;93.70
44775;DHT22;31340;51.402;0.016;2023-09-08T02:22:24;21.30;93.70
44775;DHT22;31340;51.402;0.016;2023-09-08T02:24:52;21.30;93.80
44775;DHT22;31340;51.402;0.016;2023-09-08T02:27:20;21.30;93.80
44775;DHT22;31340;51.402;0.016;2023-09-08T02:29:49;21.30;93.90
44775;DHT22;31340;51.402;0.016;2023-09-08T02:32:16;21.30;93.90
44775;DHT22;31340;51.402;0.016;2023-09-08T02:34:45;21.30;94.00
44775;DHT22;31340;51.402;0.016;2023-09-08T02:37:14;21.30;94.00
44775;DHT22;31340;51.402;0.016;2023-09-08T02:39:42;21.30;94.00
44775;DHT22;31340;51.402;0.016;2023-09-08T02:42:10;21.30;94.00
44775;DHT22;31340;51.402;0.016;2023-09-08T02:44:38;21.30;94.10
44775;DHT22;31340;51.402;0.016;2023-09-08T02:47:06;21.30;94.10
44775;DHT22;31340;51.402;0.016;2023-09-08T02:49:36;21.30;94.10
44775;DHT22;31340;51.402;0.016;2023-09-08T02:52:04;21.30;94.60
44775;DHT22;31340;51.402;0.016;2023-09-08T02:54:31;21.30;94.20
44775;DHT22;31340;51.402;0.016;2023-09-08T02:56:59;21.30;94.30
44775;DHT22;31340;51.402;0.016;2023-09-08T02:59:27;21.30;94.30
44775;DHT22;31340;51.402;0.016;2023-09-08T03:01:54;21.30;94.30
44775;DHT22;31340;51.402;0.016;2023-09-08T03:04:23;21.30;94.40
44775;DHT22;31340;51.402;0.016;2023-09-08T03:06:52;21.30;94.30
44775;DHT22;31340;51.402;0.016;2023-09-08T03:09:20;21.30;94.40
44775;DHT22;31340;51.402;0.016;2023-09-08T03:11:47;21.30;94.40
44775;DHT22;31340;51.402;0.016;2023-09-08T03:14:15;21.30;94.40
44775;DHT22;31340;51.402;0.016;2023-09-08T03:16:42;21.30;94.40
44775;DHT22;31340;51.402;0.016;2023-09-08T03:19:10;21.30;94.50
44775;DHT22;31340;51.402;0.016;2023-09-08T03:21:38;21.30;94.50
44775;DHT22;31340;51.402;0.016;2023-09-08T03:24:06;21.30;94.60
44775;DHT22;31340;51.402;0.016;2023-09-08T03:26:34;21.20;94.60
44775;DHT22;31340;51.402;0.016;2023-09-08T03:29:01;21.20;94.60
44775;DHT22;31340;51.402;0.016;2023-09-08T03:31:31;21.20;94.60
44775;DHT22;31340;51.402;0.016;2023-09-08T03:33:59;21.20;94.70
44775;DHT22;31340;51.402;0.016;2023-09-08T03:36:27;21.20;94.70
44775;DHT22;31340;51.402;0.016;2023-09-08T03:38:54;21.20;94.80
44775;DHT22;31340;51.402;0.016;2023-09-08T03:41:23;21.20;94.90
44775;DHT22;31340;51.402;0.016;2023-09-08T03:43:50;21.10;94.90
44775;DHT22;31340;51.402;0.016;2023-09-08T03:46:18;21.10;94.90
44775;DHT22;31340;51.402;0.016;2023-09-08T03:48:45;21.10;95.00
44775;DHT22;31340;51.402;0.016;2023-09-08T03:51:13;21.10;95.00
44775;DHT22;31340;51.402;0.016;2023-09-08T03:53:40;21.00;95.00
44775;DHT22;31340;51.402;0.016;2023-09-08T03:56:08;21.00;95.00
44775;DHT22;31340;51.402;0.016;2023-09-08T03:58:35;21.00;95.10
44775;DHT22;31340;51.402;0.016;2023-09-08T04:01:04;21.00;95.10
44775;DHT22;31340;51.402;0.016;2023-09-08T04:03:32;21.00;95.10
44775;DHT22;31340;51.402;0.016;2023-09-08T04:06:00;21.00;95.20
44775;DHT22;31340;51.402;0.016;2023-09-08T04:08:28;21.00;95.10
44775;DHT22;31340;51.402;0.016;2023-09-08T04:10:56;21.00;95.10
44775;DHT22;31340;51.402;0.016;2023-09-08T04:13:23;21.00;95.20
44775;DHT22;31340;51.402;0.016;2023-09-08T04:15:51;20.90;95.10
44775;DHT22;31340;51.402;0.016;2023-09-08T04:18:19;20.90;95.10
44775;DHT22;31340;51.402;0.016;2023-09-08T04:20:47;20.90;95.10
44775;DHT22;31340;51.402;0.016;2023-09-08T04:23:15;20.90;95.10
44775;DHT22;31340;51.402;0.016;2023-09-08T04:25:43;20.90;95.10
44775;DHT22;31340;51.402;0.016;2023-09-08T04:28:10;20.90;95.10
44775;DHT22;31340;51.402;0.016;2023-09-08T04:30:38;20.90;95.10
44775;DHT22;31340;51.402;0.016;2023-09-08T04:33:06;20.90;95.40
44775;DHT22;31340;51.402;0.016;2023-09-08T04:35:34;20.90;95.00
44775;DHT22;31340;51.402;0.016;2023-09-08T04:38:02;20.90;95.00
44775;DHT22;31340;51.402;0.016;2023-09-08T04:40:31;20.90;95.00
44775;DHT22;31340;51.402;0.016;2023-09-08T04:42:59;20.90;95.00
44775;DHT22;31340;51.402;0.016;2023-09-08T04:45:27;20.90;94.90
44775;DHT22;31340;51.402;0.016;2023-09-08T04:47:55;20.90;95.00
44775;DHT22;31340;51.402;0.016;2023-09-08T04:50:23;20.90;94.90
44775;DHT22;31340;51.402;0.016;2023-09-08T04:52:51;20.90;94.90
44775;DHT22;31340;51.402;0.016;2023-09-08T04:55:18;20.80;94.90
44775;DHT22;31340;51.402;0.016;2023-09-08T04:57:48;20.80;95.00
44775;DHT22;31340;51.402;0.016;2023-09-08T05:00:16;20.80;95.00
44775;DHT22;31340;51.402;0.016;2023-09-08T05:02:45;20.80;95.00
44775;DHT22;31340;51.402;0.016;2023-09-08T05:05:13;20.80;94.90
44775;DHT22;31340;51.402;0.016;2023-09-08T05:07:41;20.80;95.00
44775;DHT22;31340;51.402;0.016;2023-09-08T05:10:09;20.80;95.00
44775;DHT22;31340;51.402;0.016;2023-09-08T05:12:38;20.70;94.90
44775;DHT22;31340;51.402;0.016;2023-09-08T05:15:06;20.80;95.00
44775;DHT22;31340;51.402;0.016;2023-09-08T05:17:40;20.70;95.00
44775;DHT22;31340;51.402;0.016;2023-09-08T05:20:08;20.70;95.10
44775;DHT22;31340;51.402;0.016;2023-09-08T05:22:37;20.70;95.10
44775;DHT22;31340;51.402;0.016;2023-09-08T05:25:06;20.70;95.10
44775;DHT22;31340;51.402;0.016;2023-09-08T05:27:34;20.70;95.20
44775;DHT22;31340;51.402;0.016;2023-09-08T05:30:04;20.70;95.20
44775;DHT22;31340;51.402;0.016;2023-09-08T05:32:33;20.70;95.20
44775;DHT22;31340;51.402;0.016;2023-09-08T05:35:01;20.70;95.20
44775;DHT22;31340;51.402;0.016;2023-09-08T05:37:30;20.80;95.30
44775;DHT22;31340;51.402;0.016;2023-09-08T05:39:57;20.80;95.30
44775;DHT22;31340;51.402;0.016;2023-09-08T05:42:25;20.80;95.30
44775;DHT22;31340;51.402;0.016;2023-09-08T05:44:53;20.70;95.40
44775;DHT22;31340;51.402;0.016;2023-09-08T05:47:22;20.80;95.40
44775;DHT22;31340;51.402;0.016;2023-09-08T05:49:51;20.80;95.50
44775;DHT22;31340;51.402;0.016;2023-09-08T05:52:18;20.80;95.50
44775;DHT22;31340;51.402;0.016;2023-09-08T05:54:47;20.80;95.50
44775;DHT22;31340;51.402;0.016;2023-09-08T05:57:15;20.80;95.50
44775;DHT22;31340;51.402;0.016;2023-09-08T05:59:43;20.80;95.50
44775;DHT22;31340;51.402;0.016;2023-09-08T06:02:11;20.80;95.50
44775;DHT22;31340;51.402;0.016;2023-09-08T06:04:39;20.90;95.30
44775;DHT22;31340;51.402;0.016;2023-09-08T06:07:07;20.90;95.60
44775;DHT22;31340;51.402;0.016;2023-09-08T06:09:36;20.90;95.60
44775;DHT22;31340;51.402;0.016;2023-09-08T06:12:04;20.90;95.70
44775;DHT22;31340;51.402;0.016;2023-09-08T06:14:31;20.90;95.70
44775;DHT22;31340;51.402;0.016;2023-09-08T06:16:59;21.00;95.80
44775;DHT22;31340;51.402;0.016;2023-09-08T06:19:26;21.00;95.80
44775;DHT22;31340;51.402;0.016;2023-09-08T06:21:54;21.00;95.80
44775;DHT22;31340;51.402;0.016;2023-09-08T06:24:22;21.10;95.90
44775;DHT22;31340;51.402;0.016;2023-09-08T06:26:50;21.10;95.90
44775;DHT22;31340;51.402;0.016;2023-09-08T06:29:18;21.10;95.90
44775;DHT22;31340;51.402;0.016;2023-09-08T06:31:46;21.20;95.90
44775;DHT22;31340;51.402;0.016;2023-09-08T06:34:13;21.20;95.90
44775;DHT22;31340;51.402;0.016;2023-09-08T06:36:41;21.30;96.00
44775;DHT22;31340;51.402;0.016;2023-09-08T06:39:09;21.30;96.00
44775;DHT22;31340;51.402;0.016;2023-09-08T06:41:38;21.40;96.00
44775;DHT22;31340;51.402;0.016;2023-09-08T06:44:07;21.40;95.90
44775;DHT22;31340;51.402;0.016;2023-09-08T06:46:35;21.50;95.90
44775;DHT22;31340;51.402;0.016;2023-09-08T06:49:02;21.50;95.90
44775;DHT22;31340;51.402;0.016;2023-09-08T06:51:32;21.60;95.90
44775;DHT22;31340;51.402;0.016;2023-09-08T06:54:00;21.70;95.90
44775;DHT22;31340;51.402;0.016;2023-09-08T06:56:36;21.70;95.90
44775;DHT22;31340;51.402;0.016;2023-09-08T06:59:06;21.70;95.80
44775;DHT22;31340;51.402;0.016;2023-09-08T07:01:35;21.80;95.70
44775;DHT22;31340;51.402;0.016;2023-09-08T07:04:03;21.80;95.70
44775;DHT22;31340;51.402;0.016;2023-09-08T07:06:31;21.90;95.70
44775;DHT22;31340;51.402;0.016;2023-09-08T07:08:59;22.00;95.70
44775;DHT22;31340;51.402;0.016;2023-09-08T07:11:27;22.00;95.70
44775;DHT22;31340;51.402;0.016;2023-09-08T07:13:56;22.10;95.70
44775;DHT22;31340;51.402;0.016;2023-09-08T07:16:23;22.20;95.80
44775;DHT22;31340;51.402;0.016;2023-09-08T07:18:51;22.20;95.80
44775;DHT22;31340;51.402;0.016;2023-09-08T07:21:19;22.30;95.80
44775;DHT22;31340;51.402;0.016;2023-09-08T07:23:47;22.40;95.80
44775;DHT22;31340;51.402;0.016;2023-09-08T07:26:15;22.40;95.60
44775;DHT22;31340;51.402;0.016;2023-09-08T07:28:44;22.50;95.90
44775;DHT22;31340;51.402;0.016;2023-09-08T07:31:14;22.50;95.50
44775;DHT22;31340;51.402;0.016;2023-09-08T07:33:44;22.60;95.50
44775;DHT22;31340;51.402;0.016;2023-09-08T07:36:11;22.70;95.40
44775;DHT22;31340;51.402;0.016;2023-09-08T07:38:42;22.80;95.40
44775;DHT22;31340;51.402;0.016;2023-09-08T07:41:10;22.80;95.40
44775;DHT22;31340;51.402;0.016;2023-09-08T07:43:38;22.90;95.40
44775;DHT22;31340;51.402;0.016;2023-09-08T07:46:10;23.00;95.20
44775;DHT22;31340;51.402;0.016;2023-09-08T07:48:38;23.10;95.00
44775;DHT22;31340;51.402;0.016;2023-09-08T07:51:06;23.10;95.00
44775;DHT22;31340;51.402;0.016;2023-09-08T07:53:34;23.20;94.90
44775;DHT22;31340;51.402;0.016;2023-09-08T07:56:02;23.20;94.90
44775;DHT22;31340;51.402;0.016;2023-09-08T07:58:32;23.30;94.90
44775;DHT22;31340;51.402;0.016;2023-09-08T08:01:00;23.50;94.80
44775;DHT22;31340;51.402;0.016;2023-09-08T08:03:28;23.50;94.80
44775;DHT22;31340;51.402;0.016;2023-09-08T08:05:56;23.60;94.60
44775;DHT22;31340;51.402;0.016;2023-09-08T08:08:25;23.70;94.50
44775;DHT22;31340;51.402;0.016;2023-09-08T08:10:53;23.80;94.40
44775;DHT22;31340;51.402;0.016;2023-09-08T08:13:20;23.90;94.10
44775;DHT22;31340;51.402;0.016;2023-09-08T08:15:48;24.10;93.70
44775;DHT22;31340;51.402;0.016;2023-09-08T08:18:17;24.20;93.30
44775;DHT22;31340;51.402;0.016;2023-09-08T08:20:45;24.30;93.00
44775;DHT22;31340;51.402;0.016;2023-09-08T08:23:13;24.30;92.90
44775;DHT22;31340;51.402;0.016;2023-09-08T08:25:40;24.50;92.80
44775;DHT22;31340;51.402;0.016;2023-09-08T08:28:09;24.60;92.80
44775;DHT22;31340;51.402;0.016;2023-09-08T08:30:36;24.70;92.30
44775;DHT22;31340;51.402;0.016;2023-09-08T08:33:04;24.80;91.90
44775;DHT22;31340;51.402;0.016;2023-09-08T08:35:32;24.90;91.70
44775;DHT22;31340;51.402;0.016;2023-09-08T08:37:59;24.90;91.60
44775;DHT22;31340;51.402;0.016;2023-09-08T08:40:27;25.00;91.50
44775;DHT22;31340;51.402;0.016;2023-09-08T08:42:57;25.10;91.30
44775;DHT22;31340;51.402;0.016;2023-09-08T08:45:29;25.10;91.00
44775;DHT22;31340;51.402;0.016;2023-09-08T08:47:57;25.20;91.00
44775;DHT22;31340;51.402;0.016;2023-09-08T08:50:26;25.20;91.00
44775;DHT22;31340;51.402;0.016;2023-09-08T08:52:54;25.30;90.90
44775;DHT22;31340;51.402;0.016;2023-09-08T08:55:24;25.30;90.60
44775;DHT22;31340;51.402;0.016;2023-09-08T08:57:52;25.40;90.50
44775;DHT22;31340;51.402;0.016;2023-09-08T09:00:20;25.50;90.50
44775;DHT22;31340;51.402;0.016;2023-09-08T09:02:48;25.50;90.40
44775;DHT22;31340;51.402;0.016;2023-09-08T09:05:38;25.60;90.40
44775;DHT22;31340;51.402;0.016;2023-09-08T09:08:06;25.60;90.30
44775;DHT22;31340;51.402;0.016;2023-09-08T09:10:34;25.70;90.20
44775;DHT22;31340;51.402;0.016;2023-09-08T09:13:02;25.80;90.20
44775;DHT22;31340;51.402;0.016;2023-09-08T09:15:30;25.90;90.10
44775;DHT22;31340;51.402;0.016;2023-09-08T09:18:05;26.00;90.00
44775;DHT22;31340;51.402;0.016;2023-09-08T09:20:34;26.10;89.40
44775;DHT22;31340;51.402;0.016;2023-09-08T09:23:01;26.20;88.70
44775;DHT22;31340;51.402;0.016;2023-09-08T09:25:30;26.30;88.50
44775;DHT22;31340;51.402;0.016;2023-09-08T09:28:00;26.50;88.50
44775;DHT22;31340;51.402;0.016;2023-09-08T09:30:46;26.60;87.90
44775;DHT22;31340;51.402;0.016;2023-09-08T09:33:15;26.80;87.80
44775;DHT22;31340;51.402;0.016;2023-09-08T09:35:51;26.90;88.10
44775;DHT22;31340;51.402;0.016;2023-09-08T09:38:20;27.00;87.80
44775;DHT22;31340;51.402;0.016;2023-09-08T09:40:48;27.20;87.60
44775;DHT22;31340;51.402;0.016;2023-09-08T09:43:19;27.40;87.30
44775;DHT22;31340;51.402;0.016;2023-09-08T09:45:47;27.60;87.20
44775;DHT22;31340;51.402;0.016;2023-09-08T09:48:16;27.80;86.00
44775;DHT22;31340;51.402;0.016;2023-09-08T09:50:46;28.00;85.00
44775;DHT22;31340;51.402;0.016;2023-09-08T09:53:15;28.20;85.00
44775;DHT22;31340;51.402;0.016;2023-09-08T09:55:44;28.40;83.20
44775;DHT22;31340;51.402;0.016;2023-09-08T09:58:12;28.50;82.40
44775;DHT22;31340;51.402;0.016;2023-09-08T10:00:42;28.70;81.90
44775;DHT22;31340;51.402;0.016;2023-09-08T10:03:15;28.80;81.50
44775;DHT22;31340;51.402;0.016;2023-09-08T10:05:44;29.00;81.00
44775;DHT22;31340;51.402;0.016;2023-09-08T10:08:14;29.10;80.60
44775;DHT22;31340;51.402;0.016;2023-09-08T10:10:43;29.20;79.60
44775;DHT22;31340;51.402;0.016;2023-09-08T10:13:14;29.40;79.90
44775;DHT22;31340;51.402;0.016;2023-09-08T10:15:44;29.50;78.60
44775;DHT22;31340;51.402;0.016;2023-09-08T10:18:15;29.70;78.20
44775;DHT22;31340;51.402;0.016;2023-09-08T10:20:44;29.70;77.00
44775;DHT22;31340;51.402;0.016;2023-09-08T10:23:35;29.80;76.50
44775;DHT22;31340;51.402;0.016;2023-09-08T10:26:06;29.90;76.00
44775;DHT22;31340;51.402;0.016;2023-09-08T10:28:36;30.00;76.30
44775;DHT22;31340;51.402;0.016;2023-09-08T10:31:05;30.10;76.30
44775;DHT22;31340;51.402;0.016;2023-09-08T10:33:34;30.10;75.50
44775;DHT22;31340;51.402;0.016;2023-09-08T10:36:04;30.20;75.20
44775;DHT22;31340;51.402;0.016;2023-09-08T10:38:33;30.30;74.70
44775;DHT22;31340;51.402;0.016;2023-09-08T10:44:01;30.40;74.10
44775;DHT22;31340;51.402;0.016;2023-09-08T10:46:31;30.40;74.20
44775;DHT22;31340;51.402;0.016;2023-09-08T10:49:04;30.50;73.40
44775;DHT22;31340;51.402;0.016;2023-09-08T10:51:35;30.60;73.10
44775;DHT22;31340;51.402;0.016;2023-09-08T10:54:03;30.60;73.20
44775;DHT22;31340;51.402;0.016;2023-09-08T10:56:57;30.70;72.20
44775;DHT22;31340;51.402;0.016;2023-09-08T10:59:34;30.80;71.70
44775;DHT22;31340;51.402;0.016;2023-09-08T11:02:05;30.90;71.90
44775;DHT22;31340;51.402;0.016;2023-09-08T11:04:34;31.00;70.70
44775;DHT22;31340;51.402;0.016;2023-09-08T11:07:03;31.10;70.30
44775;DHT22;31340;51.402;0.016;2023-09-08T11:09:36;31.30;70.20
44775;DHT22;31340;51.402;0.016;2023-09-08T11:12:05;31.40;69.90
44775;DHT22;31340;51.402;0.016;2023-09-08T11:14:35;31.60;69.70
44775;DHT22;31340;51.402;0.016;2023-09-08T11:17:03;31.80;69.20
44775;DHT22;31340;51.402;0.016;2023-09-08T11:19:45;31.90;67.90
44775;DHT22;31340;51.402;0.016;2023-09-08T11:22:15;32.10;67.00
44775;DHT22;31340;51.402;0.016;2023-09-08T11:24:44;32.20;66.50
44775;DHT22;31340;51.402;0.016;2023-09-08T11:27:12;32.40;65.60
44775;DHT22;31340;51.402;0.016;2023-09-08T11:29:39;32.50;64.70
44775;DHT22;31340;51.402;0.016;2023-09-08T11:32:08;32.70;63.90
44775;DHT22;31340;51.402;0.016;2023-09-08T11:34:36;32.70;63.20
44775;DHT22;31340;51.402;0.016;2023-09-08T11:37:11;32.80;63.10
44775;DHT22;31340;51.402;0.016;2023-09-08T11:39:40;32.90;62.00
44775;DHT22;31340;51.402;0.016;2023-09-08T11:42:10;33.00;62.20
44775;DHT22;31340;51.402;0.016;2023-09-08T11:44:39;33.10;62.00
44775;DHT22;31340;51.402;0.016;2023-09-08T11:47:08;33.20;62.20
44775;DHT22;31340;51.402;0.016;2023-09-08T11:49:38;33.40;60.70
44775;DHT22;31340;51.402;0.016;2023-09-08T11:52:06;33.40;59.70
44775;DHT22;31340;51.402;0.016;2023-09-08T11:54:35;33.60;59.10
44775;DHT22;31340;51.402;0.016;2023-09-08T11:57:09;33.70;58.90
44775;DHT22;31340;51.402;0.016;2023-09-08T11:59:39;33.80;58.60
44775;DHT22;31340;51.402;0.016;2023-09-08T12:02:07;33.90;58.40
44775;DHT22;31340;51.402;0.016;2023-09-08T12:04:36;34.00;57.70
44775;DHT22;31340;51.402;0.016;2023-09-08T12:07:03;34.10;57.60
44775;DHT22;31340;51.402;0.016;2023-09-08T12:09:31;34.20;56.90
44775;DHT22;31340;51.402;0.016;2023-09-08T12:12:03;34.30;56.80
44775;DHT22;31340;51.402;0.016;2023-09-08T12:14:39;34.50;56.90
44775;DHT22;31340;51.402;0.016;2023-09-08T12:17:07;34.70;56.00
44775;DHT22;31340;51.402;0.016;2023-09-08T12:19:35;34.90;55.50
44775;DHT22;31340;51.402;0.016;2023-09-08T12:22:06;35.10;55.00
44775;DHT22;31340;51.402;0.016;2023-09-08T12:27:18;35.40;53.10
44775;DHT22;31340;51.402;0.016;2023-09-08T12:29:54;35.40;53.70
44775;DHT22;31340;51.402;0.016;2023-09-08T12:32:22;35.50;53.20
44775;DHT22;31340;51.402;0.016;2023-09-08T12:34:51;35.60;53.70
44775;DHT22;31340;51.402;0.016;2023-09-08T12:37:23;35.70;53.20
44775;DHT22;31340;51.402;0.016;2023-09-08T12:39:51;35.80;52.80
44775;DHT22;31340;51.402;0.016;2023-09-08T12:42:19;35.90;52.30
44775;DHT22;31340;51.402;0.016;2023-09-08T12:44:47;36.00;52.20
44775;DHT22;31340;51.402;0.016;2023-09-08T12:47:15;36.00;51.00
44775;DHT22;31340;51.402;0.016;2023-09-08T12:49:43;36.00;51.20
44775;DHT22;31340;51.402;0.016;2023-09-08T12:52:10;36.00;51.50
44775;DHT22;31340;51.402;0.016;2023-09-08T12:54:38;36.10;50.40
44775;DHT22;31340;51.402;0.016;2023-09-08T12:57:05;36.20;50.80
44775;DHT22;31340;51.402;0.016;2023-09-08T12:59:33;36.20;50.60
44775;DHT22;31340;51.402;0.016;2023-09-08T13:02:01;36.30;50.50
44775;DHT22;31340;51.402;0.016;2023-09-08T13:04:28;36.40;50.20
44775;DHT22;31340;51.402;0.016;2023-09-08T13:06:56;36.40;50.00
44775;DHT22;31340;51.402;0.016;2023-09-08T13:09:25;36.50;50.10
44775;DHT22;31340;51.402;0.016;2023-09-08T13:11:53;36.60;49.70
44775;DHT22;31340;51.402;0.016;2023-09-08T13:14:21;36.70;49.50
44775;DHT22;31340;51.402;0.016;2023-09-08T13:16:48;36.80;49.80
44775;DHT22;31340;51.402;0.016;2023-09-08T13:19:16;37.00;48.90
44775;DHT22;31340;51.402;0.016;2023-09-08T13:21:43;37.10;48.60
44775;DHT22;31340;51.402;0.016;2023-09-08T13:24:11;37.20;48.20
44775;DHT22;31340;51.402;0.016;2023-09-08T13:26:39;37.30;48.40
44775;DHT22;31340;51.402;0.016;2023-09-08T13:29:08;37.40;47.80
44775;DHT22;31340;51.402;0.016;2023-09-08T13:31:35;37.40;47.00
44775;DHT22;31340;51.402;0.016;2023-09-08T13:34:03;37.40;47.10
44775;DHT22;31340;51.402;0.016;2023-09-08T13:36:31;37.40;47.20
44775;DHT22;31340;51.402;0.016;2023-09-08T13:38:58;37.40;47.10
44775;DHT22;31340;51.402;0.016;2023-09-08T13:41:53;37.40;47.30
44775;DHT22;31340;51.402;0.016;2023-09-08T13:44:22;37.50;46.70
44775;DHT22;31340;51.402;0.016;2023-09-08T13:46:51;37.50;47.40
44775;DHT22;31340;51.402;0.016;2023-09-08T13:49:20;37.50;47.40
44775;DHT22;31340;51.402;0.016;2023-09-08T13:51:49;37.50;46.90
44775;DHT22;31340;51.402;0.016;2023-09-08T13:54:21;37.60;46.50
44775;DHT22;31340;51.402;0.016;2023-09-08T13:57:02;37.50;46.40
44775;DHT22;31340;51.402;0.016;2023-09-08T13:59:35;37.50;46.80
44775;DHT22;31340;51.402;0.016;2023-09-08T14:02:03;37.50;46.80
44775;DHT22;31340;51.402;0.016;2023-09-08T14:04:34;37.50;46.70
44775;DHT22;31340;51.402;0.016;2023-09-08T14:07:08;37.50;47.10
44775;DHT22;31340;51.402;0.016;2023-09-08T14:09:39;37.50;46.20
44775;DHT22;31340;51.402;0.016;2023-09-08T14:12:19;37.40;46.10
44775;DHT22;31340;51.402;0.016;2023-09-08T14:14:53;37.30;45.90
44775;DHT22;31340;51.402;0.016;2023-09-08T14:17:21;37.20;46.00
44775;DHT22;31340;51.402;0.016;2023-09-08T14:19:48;37.10;46.00
44775;DHT22;31340;51.402;0.016;2023-09-08T14:22:16;37.00;46.20
44775;DHT22;31340;51.402;0.016;2023-09-08T14:24:44;37.00;46.60
44775;DHT22;31340;51.402;0.016;2023-09-08T14:27:11;36.90;46.70
44775;DHT22;31340;51.402;0.016;2023-09-08T14:29:39;36.90;46.50
44775;DHT22;31340;51.402;0.016;2023-09-08T14:32:06;36.90;46.60
44775;DHT22;31340;51.402;0.016;2023-09-08T14:34:34;36.80;46.30
44775;DHT22;31340;51.402;0.016;2023-09-08T14:37:02;36.80;46.40
44775;DHT22;31340;51.402;0.016;2023-09-08T14:39:32;36.70;46.60
44775;DHT22;31340;51.402;0.016;2023-09-08T14:42:00;36.60;46.80
44775;DHT22;31340;51.402;0.016;2023-09-08T14:44:28;36.60;47.00
44775;DHT22;31340;51.402;0.016;2023-09-08T14:46:55;36.60;47.10
44775;DHT22;31340;51.402;0.016;2023-09-08T14:49:23;36.60;47.20
44775;DHT22;31340;51.402;0.016;2023-09-08T14:51:50;36.50;47.10
44775;DHT22;31340;51.402;0.016;2023-09-08T14:54:18;36.40;47.20
44775;DHT22;31340;51.402;0.016;2023-09-08T14:56:45;36.30;47.50
44775;DHT22;31340;51.402;0.016;2023-09-08T14:59:13;36.20;47.80
44775;DHT22;31340;51.402;0.016;2023-09-08T15:01:41;36.20;47.80
44775;DHT22;31340;51.402;0.016;2023-09-08T15:04:11;36.20;47.70
44775;DHT22;31340;51.402;0.016;2023-09-08T15:06:38;36.10;48.40
44775;DHT22;31340;51.402;0.016;2023-09-08T15:09:06;36.00;48.30
44775;DHT22;31340;51.402;0.016;2023-09-08T15:11:33;36.00;48.10
44775;DHT22;31340;51.402;0.016;2023-09-08T15:14:01;35.80;48.70
44775;DHT22;31340;51.402;0.016;2023-09-08T15:16:28;35.90;48.40
44775;DHT22;31340;51.402;0.016;2023-09-08T15:18:56;35.80;48.40
44775;DHT22;31340;51.402;0.016;2023-09-08T15:21:25;35.80;48.50
44775;DHT22;31340;51.402;0.016;2023-09-08T15:23:55;35.70;48.60
44775;DHT22;31340;51.402;0.016;2023-09-08T15:26:22;35.60;48.80
44775;DHT22;31340;51.402;0.016;2023-09-08T15:28:50;35.60;48.90
44775;DHT22;31340;51.402;0.016;2023-09-08T15:31:17;35.50;48.90
44775;DHT22;31340;51.402;0.016;2023-09-08T15:33:45;35.40;48.90
44775;DHT22;31340;51.402;0.016;2023-09-08T15:36:13;35.30;48.90
44775;DHT22;31340;51.402;0.016;2023-09-08T15:38:41;35.30;48.80
44775;DHT22;31340;51.402;0.016;2023-09-08T15:43:40;35.20;48.90
44775;DHT22;31340;51.402;0.016;2023-09-08T15:46:08;35.10;49.00
44775;DHT22;31340;51.402;0.016;2023-09-08T15:48:39;35.10;48.80